Time;durP1;ratioP1;P1;durP2;ratioP2;P2;SDS_P1;SDS_P2;PMS_P1;PMS_P2;Temp;Humidity;BMP_temperature;BMP_pressure;BME280_temperature;BME280_humidity;BME280_pressure;Samples;Min_cycle;Max_cycle;Signal;HPM_P1;HPM_P2
2022/10/25 00:01:24;;;;;;;16.80;10.18;;;11.90;99.90;;;;;;4963881;28;20054;-60
2022/10/25 00:03:50;;;;;;;17.25;9.73;;;11.80;99.90;;;;;;4964194;28;20046;-60
2022/10/25 00:06:16;;;;;;;18.98;11.40;;;11.80;99.90;;;;;;4939573;28;20827;-61
2022/10/25 00:08:42;;;;;;;23.50;10.70;;;11.90;99.90;;;;;;4944548;28;20043;-61
2022/10/25 00:11:20;;;;;;;20.23;11.18;;;12.00;99.90;;;;;;4944411;29;20055;-61
2022/10/25 00:13:51;;;;;;;17.83;11.15;;;12.10;99.90;;;;;;4945144;29;20428;-61
2022/10/25 00:16:20;;;;;;;18.00;10.85;;;12.10;99.90;;;;;;4943629;29;20046;-61
2022/10/25 00:18:45;;;;;;;19.67;11.05;;;12.20;99.90;;;;;;4944679;29;20047;-61
2022/10/25 00:21:11;;;;;;;16.52;11.38;;;12.00;99.90;;;;;;4943854;29;20051;-61
2022/10/25 00:23:37;;;;;;;18.38;10.93;;;12.10;99.90;;;;;;4943957;29;20647;-61
2022/10/25 00:26:04;;;;;;;20.42;11.45;;;11.90;99.90;;;;;;4944671;29;20643;-61
2022/10/25 00:28:30;;;;;;;20.27;11.25;;;12.20;99.90;;;;;;4944192;29;20078;-61
2022/10/25 00:31:04;;;;;;;18.58;10.82;;;12.00;99.90;;;;;;4944453;28;20075;-62
2022/10/25 00:33:34;;;;;;;22.55;12.63;;;11.90;99.90;;;;;;4947953;29;20066;-62
2022/10/25 00:36:06;;;;;;;18.95;11.60;;;11.90;99.90;;;;;;4947783;29;20098;-61
2022/10/25 00:38:32;;;;;;;23.55;13.30;;;11.90;99.90;;;;;;4929757;29;20051;-60
2022/10/25 00:40:58;;;;;;;24.52;12.35;;;12.00;99.90;;;;;;4947902;29;20070;-61
2022/10/25 00:43:39;;;;;;;21.58;12.60;;;11.90;99.90;;;;;;4948422;29;20381;-61
2022/10/25 00:46:13;;;;;;;22.83;13.93;;;11.90;99.90;;;;;;4947696;29;20055;-61
2022/10/25 00:48:41;;;;;;;22.27;13.20;;;11.80;99.90;;;;;;4930146;29;20035;-60
2022/10/25 00:51:07;;;;;;;24.63;13.88;;;11.90;99.90;;;;;;4947747;29;20051;-60
2022/10/25 00:53:36;;;;;;;24.95;14.15;;;11.90;99.90;;;;;;4946550;29;20039;-61
2022/10/25 00:56:09;;;;;;;24.52;13.38;;;11.80;99.90;;;;;;4947714;29;20051;-61
2022/10/25 00:58:37;;;;;;;23.63;13.45;;;12.00;99.90;;;;;;4947589;29;20595;-60
2022/10/25 01:01:07;;;;;;;23.45;14.57;;;12.00;99.90;;;;;;4947401;29;20094;-61
2022/10/25 01:03:35;;;;;;;22.17;14.48;;;11.90;99.90;;;;;;4930266;29;20055;-61
2022/10/25 01:06:04;;;;;;;29.83;14.55;;;11.90;99.90;;;;;;4955613;28;20560;-61
2022/10/25 01:08:31;;;;;;;24.63;14.80;;;12.00;99.90;;;;;;4931255;29;20051;-60
2022/10/25 01:10:56;;;;;;;27.70;15.77;;;12.10;99.90;;;;;;4947548;29;20050;-61
2022/10/25 01:13:22;;;;;;;21.23;14.95;;;12.00;99.90;;;;;;4947710;29;20478;-60
2022/10/25 01:15:51;;;;;;;25.13;15.55;;;12.00;99.90;;;;;;4946571;29;20839;-60
2022/10/25 01:18:28;;;;;;;26.67;15.88;;;12.00;99.90;;;;;;4947251;29;20047;-61
2022/10/25 01:21:13;;;;;;;25.83;17.27;;;12.30;99.90;;;;;;4946271;29;20101;-60
2022/10/25 01:23:50;;;;;;;;;;;12.30;99.90;;;;;;4948023;29;20518;-61
2022/10/25 01:26:25;;;;;;;26.88;16.55;;;12.40;99.90;;;;;;4947207;28;19922;-61
2022/10/25 01:29:09;;;;;;;29.98;19.27;;;12.20;99.90;;;;;;4946815;29;20181;-61
2022/10/25 01:31:57;;;;;;;29.52;17.98;;;12.30;99.90;;;;;;4946873;28;20122;-60
2022/10/25 01:34:30;;;;;;;27.58;18.05;;;12.30;99.90;;;;;;4936336;29;20103;-61
2022/10/25 01:37:27;;;;;;;28.30;18.38;;;12.40;99.90;;;;;;4950048;28;20045;-60
2022/10/25 01:39:58;;;;;;;26.08;16.02;;;12.30;99.90;;;;;;4966202;28;20050;-61
2022/10/25 01:42:40;;;;;;;31.05;19.83;;;12.40;99.90;;;;;;4965980;28;20043;-61
2022/10/25 01:45:26;;;;;;;29.17;18.83;;;12.40;99.90;;;;;;4947892;28;20054;-61
2022/10/25 01:48:07;;;;;;;27.88;18.33;;;12.70;99.90;;;;;;4964881;28;20622;-61
2022/10/25 01:50:37;;;;;;;28.02;19.60;;;12.70;99.90;;;;;;4965781;28;20134;-60
2022/10/25 01:53:03;;;;;;;27.23;19.90;;;12.50;99.90;;;;;;4947478;28;20105;-61
2022/10/25 01:55:47;;;;;;;31.00;19.60;;;12.50;99.90;;;;;;4966165;28;20078;-61
2022/10/25 01:58:52;;;;;;;28.90;18.80;;;12.50;99.90;;;;;;4965729;28;20047;-61
2022/10/25 02:01:57;;;;;;;29.92;19.38;;;12.50;99.90;;;;;;4955016;28;20381;-61
2022/10/25 02:04:32;;;;;;;29.00;19.83;;;12.50;99.90;;;;;;4964014;28;20050;-61
2022/10/25 02:07:10;;;;;;;;;;;12.50;99.90;;;;;;4958247;28;20083;-61
2022/10/25 02:10:02;;;;;;;25.50;18.40;;;12.70;99.90;;;;;;4946073;29;19923;-61
2022/10/25 02:12:52;;;;;;;24.27;17.48;;;12.80;99.90;;;;;;4944684;29;20109;-61
2022/10/25 02:15:22;;;;;;;27.13;19.33;;;12.70;99.90;;;;;;4945847;29;20051;-60
2022/10/25 02:17:56;;;;;;;27.52;17.75;;;12.90;99.90;;;;;;4960161;28;20078;-61
2022/10/25 02:20:25;;;;;;;24.45;18.63;;;12.70;99.90;;;;;;4945581;29;20051;-61
2022/10/25 02:22:53;;;;;;;24.67;17.58;;;12.80;99.90;;;;;;4945368;29;20051;-61
2022/10/25 02:25:20;;;;;;;23.05;17.20;;;12.80;99.90;;;;;;4945480;29;20090;-60
2022/10/25 02:27:46;;;;;;;28.27;18.88;;;13.00;99.90;;;;;;4961976;28;20038;-61
2022/10/25 02:30:12;;;;;;;28.85;18.88;;;12.90;99.90;;;;;;4964148;28;20060;-60
2022/10/25 02:32:37;;;;;;;28.70;18.40;;;12.70;99.90;;;;;;4963699;28;20046;-60
2022/10/25 02:35:04;;;;;;;27.35;19.33;;;12.60;99.90;;;;;;4964928;28;20039;-62
2022/10/25 02:37:31;;;;;;;24.58;17.38;;;12.60;99.90;;;;;;4964137;28;20742;-62
2022/10/25 02:39:56;;;;;;;28.25;18.10;;;12.80;99.90;;;;;;4964170;28;20126;-60
2022/10/25 02:42:22;;;;;;;26.33;17.17;;;12.80;99.90;;;;;;4963865;28;20122;-60
2022/10/25 02:44:48;;;;;;;26.77;17.55;;;12.70;99.90;;;;;;4964670;28;20053;-61
2022/10/25 02:47:13;;;;;;;26.15;16.10;;;12.70;99.90;;;;;;4965805;28;20481;-60
2022/10/25 02:49:39;;;;;;;24.65;15.93;;;12.60;99.90;;;;;;4963033;28;20039;-61
2022/10/25 02:52:04;;;;;;;23.50;16.05;;;12.60;99.90;;;;;;4963557;28;20051;-61
2022/10/25 02:54:30;;;;;;;21.80;16.40;;;12.80;99.90;;;;;;4965271;28;20039;-61
2022/10/25 02:56:56;;;;;;;24.60;15.70;;;12.80;99.90;;;;;;4964583;28;20466;-61
2022/10/25 02:59:21;;;;;;;19.17;13.68;;;12.70;99.90;;;;;;4964456;28;20470;-61
2022/10/25 03:01:47;;;;;;;25.83;16.40;;;12.60;99.90;;;;;;4964819;28;20039;-60
2022/10/25 03:04:13;;;;;;;23.10;16.42;;;12.60;99.90;;;;;;4963927;28;20502;-60
2022/10/25 03:06:40;;;;;;;27.35;16.98;;;12.80;99.90;;;;;;4963761;28;20130;-61
2022/10/25 03:09:05;;;;;;;27.92;17.33;;;12.60;99.90;;;;;;4963689;28;20042;-61
2022/10/25 03:11:31;;;;;;;25.83;17.48;;;12.60;99.90;;;;;;4964692;28;20043;-60
2022/10/25 03:13:56;;;;;;;23.23;16.67;;;12.60;99.90;;;;;;4964510;28;20039;-60
2022/10/25 03:16:22;;;;;;;26.75;17.88;;;12.70;99.90;;;;;;4947302;28;20055;-60
2022/10/25 03:18:48;;;;;;;24.10;16.90;;;12.90;99.90;;;;;;4964857;28;20050;-60
2022/10/25 03:21:13;;;;;;;27.00;16.98;;;12.90;99.90;;;;;;4964013;28;20058;-61
2022/10/25 03:23:39;;;;;;;28.52;18.08;;;12.80;99.90;;;;;;4964275;28;20058;-61
2022/10/25 03:26:05;;;;;;;24.40;17.23;;;12.90;99.90;;;;;;4964468;28;20063;-60
2022/10/25 03:28:31;;;;;;;27.35;17.83;;;12.60;99.90;;;;;;4964778;28;20486;-60
2022/10/25 03:30:57;;;;;;;25.00;17.05;;;12.80;99.90;;;;;;4964954;28;20417;-61
2022/10/25 03:33:24;;;;;;;29.23;16.70;;;12.60;99.90;;;;;;4964189;28;20042;-60
2022/10/25 03:35:53;;;;;;;26.58;16.45;;;12.70;99.90;;;;;;4963835;28;20043;-60
2022/10/25 03:38:19;;;;;;;27.15;17.02;;;12.90;99.90;;;;;;4964571;28;20035;-61
2022/10/25 03:40:45;;;;;;;22.88;15.15;;;12.70;99.90;;;;;;4963992;28;20035;-60
2022/10/25 03:43:11;;;;;;;22.58;15.63;;;12.70;99.90;;;;;;4963503;28;20051;-61
2022/10/25 03:45:37;;;;;;;18.08;13.80;;;12.80;99.90;;;;;;4964604;28;20043;-60
2022/10/25 03:48:03;;;;;;;25.38;14.82;;;12.90;99.90;;;;;;4964768;28;20050;-61
2022/10/25 03:50:28;;;;;;;21.73;15.15;;;12.80;99.90;;;;;;4962707;28;20042;-60
2022/10/25 03:52:54;;;;;;;24.70;14.73;;;12.70;99.90;;;;;;4964306;28;20895;-61
2022/10/25 03:55:19;;;;;;;20.90;13.95;;;12.60;99.90;;;;;;4963762;28;20050;-60
2022/10/25 03:57:45;;;;;;;22.85;14.98;;;12.60;99.90;;;;;;4963927;28;20494;-60
2022/10/25 04:00:11;;;;;;;20.80;13.88;;;12.80;99.90;;;;;;4945707;28;20047;-60
2022/10/25 04:02:37;;;;;;;21.88;15.55;;;12.90;99.90;;;;;;4946726;28;20073;-61
2022/10/25 04:05:03;;;;;;;29.65;17.23;;;12.70;99.90;;;;;;4964030;28;20054;-60
2022/10/25 04:07:29;;;;;;;23.20;15.82;;;12.80;99.90;;;;;;4965015;28;20050;-61
2022/10/25 04:09:54;;;;;;;21.70;15.65;;;12.90;99.90;;;;;;4949613;28;20133;-61
2022/10/25 04:12:20;;;;;;;23.15;16.08;;;12.80;99.90;;;;;;4967071;28;20557;-60
2022/10/25 04:14:46;;;;;;;28.58;16.50;;;12.80;99.90;;;;;;4967250;28;20045;-61
2022/10/25 04:17:11;;;;;;;28.58;16.40;;;12.80;99.90;;;;;;4966031;28;20090;-61
2022/10/25 04:19:37;;;;;;;28.27;16.92;;;12.60;99.90;;;;;;4967915;28;20046;-60
2022/10/25 04:22:03;;;;;;;26.48;16.10;;;12.90;99.90;;;;;;4966130;28;20545;-61
2022/10/25 04:24:28;;;;;;;26.92;17.02;;;12.70;99.90;;;;;;4966870;28;20445;-61
2022/10/25 04:26:54;;;;;;;22.83;15.57;;;12.70;99.90;;;;;;4965980;28;20085;-60
2022/10/25 04:29:20;;;;;;;29.83;15.93;;;12.60;99.90;;;;;;4949938;28;20045;-60
2022/10/25 04:31:45;;;;;;;25.77;15.63;;;12.80;99.90;;;;;;4967380;28;20053;-60
2022/10/25 04:34:11;;;;;;;23.92;15.05;;;12.50;99.90;;;;;;4949644;28;20105;-61
2022/10/25 04:36:37;;;;;;;25.73;15.05;;;12.50;99.90;;;;;;4966712;28;20428;-60
2022/10/25 04:39:03;;;;;;;25.42;15.27;;;12.50;99.90;;;;;;4966794;28;20489;-61
2022/10/25 04:41:29;;;;;;;22.58;14.68;;;12.60;99.90;;;;;;4967528;28;20085;-61
2022/10/25 04:43:54;;;;;;;24.88;13.85;;;12.70;99.90;;;;;;4966346;28;20065;-61
2022/10/25 04:46:20;;;;;;;21.88;12.82;;;12.50;99.90;;;;;;4950194;28;20462;-60
2022/10/25 04:48:46;;;;;;;24.58;14.20;;;12.40;99.90;;;;;;4949385;28;20113;-61
2022/10/25 04:51:13;;;;;;;24.42;13.88;;;12.60;99.90;;;;;;4949381;28;20045;-61
2022/10/25 04:53:38;;;;;;;22.70;13.77;;;12.60;99.90;;;;;;4966372;28;20077;-60
2022/10/25 04:56:08;;;;;;;26.83;14.15;;;12.40;99.90;;;;;;4966821;28;20714;-60
2022/10/25 04:58:34;;;;;;;29.42;13.65;;;12.60;99.90;;;;;;4967437;28;20450;-61
2022/10/25 05:01:03;;;;;;;24.95;14.07;;;12.40;99.90;;;;;;4965689;28;20055;-60
2022/10/25 05:03:29;;;;;;;29.58;15.05;;;12.50;99.90;;;;;;4966925;28;20532;-61
2022/10/25 05:06:06;;;;;;;23.48;13.35;;;12.30;99.90;;;;;;4965069;28;20133;-60
2022/10/25 05:08:31;;;;;;;19.42;12.45;;;12.60;99.90;;;;;;4966510;28;20434;-61
2022/10/25 05:10:57;;;;;;;27.02;13.77;;;12.40;99.90;;;;;;4966657;28;20047;-61
2022/10/25 05:13:22;;;;;;;30.00;13.63;;;12.50;99.90;;;;;;4966705;28;20486;-60
2022/10/25 05:15:57;;;;;;;26.08;14.88;;;12.30;99.90;;;;;;4965518;28;20231;-61
2022/10/25 05:18:23;;;;;;;25.45;14.07;;;12.30;99.90;;;;;;4965316;28;20050;-61
2022/10/25 05:20:54;;;;;;;24.90;13.68;;;12.30;99.90;;;;;;4965430;28;20059;-61
2022/10/25 05:23:20;;;;;;;25.70;14.20;;;12.40;99.90;;;;;;4965851;28;20039;-60
2022/10/25 05:25:45;;;;;;;26.90;13.43;;;12.40;99.90;;;;;;4949258;28;20730;-60
2022/10/25 05:28:11;;;;;;;27.10;13.88;;;12.20;99.90;;;;;;4966671;28;20046;-60
2022/10/25 05:30:40;;;;;;;25.23;14.40;;;12.20;99.90;;;;;;4966500;28;20518;-61
2022/10/25 05:33:06;;;;;;;30.55;14.35;;;12.30;99.90;;;;;;4948023;28;20051;-61
2022/10/25 05:35:32;;;;;;;24.75;13.80;;;12.20;99.90;;;;;;4965303;28;20398;-61
2022/10/25 05:37:57;;;;;;;25.52;14.43;;;12.30;99.90;;;;;;4966349;28;20043;-61
2022/10/25 05:40:23;;;;;;;27.58;14.40;;;12.40;99.90;;;;;;4965384;28;20120;-60
2022/10/25 05:42:49;;;;;;;30.35;14.98;;;12.40;99.90;;;;;;4965659;28;20051;-61
2022/10/25 05:45:14;;;;;;;26.40;14.50;;;12.20;99.90;;;;;;4966539;28;20046;-62
2022/10/25 05:47:40;;;;;;;31.88;15.55;;;12.40;99.90;;;;;;4965633;28;20599;-61
2022/10/25 05:50:06;;;;;;;34.83;16.75;;;12.40;99.90;;;;;;4964474;28;20039;-61
2022/10/25 05:52:31;;;;;;;26.15;15.15;;;12.20;99.90;;;;;;4966011;28;20165;-61
2022/10/25 05:54:57;;;;;;;32.53;15.30;;;12.30;99.90;;;;;;4948478;28;20050;-60
2022/10/25 05:57:22;;;;;;;25.58;14.18;;;12.50;99.90;;;;;;4965119;28;20482;-61
2022/10/25 05:59:48;;;;;;;24.45;15.18;;;12.50;99.90;;;;;;4965457;28;20050;-61
2022/10/25 06:02:14;;;;;;;27.40;15.35;;;12.30;99.90;;;;;;4964852;28;20049;-61
2022/10/25 06:04:39;;;;;;;32.72;15.80;;;12.50;99.90;;;;;;4965329;28;20047;-61
2022/10/25 06:07:05;;;;;;;32.67;15.70;;;12.30;99.90;;;;;;4963635;28;20866;-61
2022/10/25 06:09:30;;;;;;;30.85;15.55;;;12.30;99.90;;;;;;4965279;28;20054;-61
2022/10/25 06:11:56;;;;;;;25.85;16.02;;;12.30;99.90;;;;;;4965263;28;20120;-60
2022/10/25 06:14:22;;;;;;;27.10;14.80;;;12.30;99.90;;;;;;4965052;28;20042;-61
2022/10/25 06:16:47;;;;;;;26.05;16.30;;;12.50;99.90;;;;;;4965093;28;20061;-61
2022/10/25 06:19:13;;;;;;;28.00;14.85;;;12.50;99.90;;;;;;4965622;28;20050;-61
2022/10/25 06:21:39;;;;;;;27.30;15.35;;;12.40;99.90;;;;;;4962195;28;20093;-61
2022/10/25 06:24:04;;;;;;;24.08;13.93;;;12.60;99.90;;;;;;4964222;28;20050;-61
2022/10/25 06:26:31;;;;;;;30.33;15.30;;;12.30;99.90;;;;;;4964902;28;20474;-61
2022/10/25 06:28:59;;;;;;;25.33;14.88;;;12.30;99.90;;;;;;4964984;28;20046;-61
2022/10/25 06:31:26;;;;;;;23.70;13.70;;;12.50;99.90;;;;;;4965116;28;20058;-61
2022/10/25 06:33:51;;;;;;;28.08;15.43;;;12.40;99.90;;;;;;4964776;28;20443;-60
2022/10/25 06:36:20;;;;;;;26.42;14.32;;;12.30;99.90;;;;;;4964569;28;20160;-62
2022/10/25 06:38:47;;;;;;;24.80;14.65;;;12.40;99.90;;;;;;4965352;28;20047;-61
2022/10/25 06:41:15;;;;;;;25.52;14.40;;;12.50;99.90;;;;;;4964282;28;20375;-61
2022/10/25 06:43:40;;;;;;;23.75;14.00;;;12.60;99.90;;;;;;4964900;28;20035;-61
2022/10/25 06:46:13;;;;;;;22.70;13.70;;;12.70;99.90;;;;;;4964778;28;20043;-61
2022/10/25 06:48:38;;;;;;;22.17;13.75;;;12.70;99.90;;;;;;4963905;28;20046;-61
2022/10/25 06:51:08;;;;;;;28.52;13.70;;;12.50;99.90;;;;;;4964219;28;20117;-61
2022/10/25 06:53:35;;;;;;;26.15;13.10;;;12.50;99.90;;;;;;4964843;28;20553;-61
2022/10/25 06:56:05;;;;;;;18.88;9.73;;;12.50;99.90;;;;;;4964053;28;20051;-61
2022/10/25 06:58:32;;;;;;;22.38;12.27;;;12.70;99.90;;;;;;4964289;28;20108;-61
2022/10/25 07:01:02;;;;;;;24.70;11.02;;;12.60;99.90;;;;;;4964839;28;20069;-61
2022/10/25 07:03:33;;;;;;;21.85;11.05;;;12.70;99.90;;;;;;4946437;28;20054;-61
2022/10/25 07:06:05;;;;;;;19.67;10.50;;;12.50;99.90;;;;;;4945386;28;20055;-61
2022/10/25 07:08:31;;;;;;;24.15;10.05;;;12.80;99.90;;;;;;4947218;28;20334;-61
2022/10/25 07:10:57;;;;;;;17.85;9.20;;;12.60;99.90;;;;;;4964037;28;20051;-61
2022/10/25 07:13:23;;;;;;;17.60;9.40;;;12.80;99.90;;;;;;4963671;28;20062;-61
2022/10/25 07:15:49;;;;;;;18.30;8.55;;;12.80;99.90;;;;;;4963783;28;20066;-62
2022/10/25 07:18:15;;;;;;;19.25;9.13;;;12.90;99.90;;;;;;4980921;28;20481;-61
2022/10/25 07:20:47;;;;;;;20.30;8.75;;;12.70;99.90;;;;;;4982166;28;20053;-61
2022/10/25 07:23:14;;;;;;;18.77;9.00;;;12.80;99.90;;;;;;4983682;28;20065;-61
2022/10/25 07:25:40;;;;;;;19.98;9.93;;;12.90;99.90;;;;;;4984116;28;20046;-61
2022/10/25 07:28:06;;;;;;;21.40;9.63;;;12.80;99.90;;;;;;4983027;28;20413;-62
2022/10/25 07:30:32;;;;;;;12.40;7.15;;;12.60;99.90;;;;;;4984082;28;20046;-61
2022/10/25 07:32:57;;;;;;;19.55;9.10;;;12.70;99.90;;;;;;4983304;28;20046;-61
2022/10/25 07:35:23;;;;;;;20.60;9.35;;;12.60;99.90;;;;;;4983840;28;20086;-61
2022/10/25 07:37:49;;;;;;;24.80;9.40;;;12.60;99.90;;;;;;4983468;28;20151;-61
2022/10/25 07:40:14;;;;;;;21.30;10.15;;;12.60;99.90;;;;;;4984368;28;20042;-61
2022/10/25 07:42:40;;;;;;;19.45;10.30;;;12.60;99.90;;;;;;4989237;28;20053;-61
2022/10/25 07:45:06;;;;;;;24.45;10.80;;;12.70;99.90;;;;;;4990527;28;20054;-62
2022/10/25 07:47:32;;;;;;;23.17;10.57;;;12.70;99.90;;;;;;4989756;28;20453;-67
2022/10/25 07:49:59;;;;;;;20.58;10.00;;;12.90;99.90;;;;;;4989507;28;20070;-61
2022/10/25 07:52:24;;;;;;;21.98;10.10;;;12.80;99.90;;;;;;4989641;28;20489;-60
2022/10/25 07:54:50;;;;;;;19.17;9.80;;;12.80;99.90;;;;;;4989498;28;20042;-63
2022/10/25 07:57:16;;;;;;;24.48;9.10;;;12.80;99.90;;;;;;4990198;28;20471;-61
2022/10/25 07:59:41;;;;;;;18.15;9.82;;;13.00;99.90;;;;;;4990350;28;20056;-62
2022/10/25 08:02:10;;;;;;;28.92;10.52;;;13.00;99.90;;;;;;4989904;28;20073;-62
2022/10/25 08:04:36;;;;;;;25.75;10.13;;;13.10;99.90;;;;;;4985171;28;20477;-62
2022/10/25 08:07:02;;;;;;;20.98;9.68;;;13.10;99.90;;;;;;4969706;28;20054;-62
2022/10/25 08:09:28;;;;;;;23.27;10.35;;;13.30;99.90;;;;;;4969955;28;20387;-62
2022/10/25 08:11:54;;;;;;;22.85;10.52;;;13.30;99.90;;;;;;4969678;28;20057;-62
2022/10/25 08:14:20;;;;;;;19.02;8.55;;;13.20;99.90;;;;;;4969499;28;20043;-61
2022/10/25 08:16:45;;;;;;;25.35;10.38;;;13.20;99.90;;;;;;4970450;28;20100;-62
2022/10/25 08:19:11;;;;;;;20.10;10.38;;;13.40;99.90;;;;;;4970142;28;20541;-62
2022/10/25 08:21:36;;;;;;;18.30;8.98;;;13.50;99.90;;;;;;4968551;28;20055;-62
2022/10/25 08:24:02;;;;;;;19.73;9.63;;;13.50;99.90;;;;;;4969941;28;20545;-62
2022/10/25 08:26:28;;;;;;;18.77;8.73;;;13.60;99.90;;;;;;4952207;28;20564;-62
2022/10/25 08:28:54;;;;;;;17.75;8.73;;;13.60;99.90;;;;;;4969807;28;20078;-62
2022/10/25 08:31:20;;;;;;;22.30;9.15;;;13.60;99.90;;;;;;4969553;28;20901;-61
2022/10/25 08:33:46;;;;;;;21.33;9.82;;;13.50;99.90;;;;;;4968782;28;20031;-61
2022/10/25 08:36:11;;;;;;;23.60;10.10;;;13.40;99.90;;;;;;4969111;28;20413;-62
2022/10/25 08:38:37;;;;;;;19.85;9.07;;;13.70;99.90;;;;;;4969143;28;20051;-61
2022/10/25 08:41:21;;;;;;;22.83;8.85;;;13.70;99.90;;;;;;4970774;28;20062;-62
2022/10/25 08:44:15;;;;;;;23.88;9.02;;;13.70;99.90;;;;;;4953021;28;20054;-61
2022/10/25 08:47:06;;;;;;;24.00;8.88;;;13.60;99.90;;;;;;4970021;28;20043;-62
2022/10/25 08:49:53;;;;;;;16.48;7.72;;;13.90;99.90;;;;;;4970165;28;20502;-63
2022/10/25 08:52:42;;;;;;;22.38;8.85;;;13.80;99.90;;;;;;4951216;28;20043;-62
2022/10/25 08:55:18;;;;;;;25.23;8.95;;;14.10;99.90;;;;;;4966345;28;20122;-62
2022/10/25 08:57:46;;;;;;;25.40;10.50;;;14.00;99.90;;;;;;4966082;28;20046;-62
2022/10/25 09:00:22;;;;;;;16.00;7.93;;;13.80;99.90;;;;;;4966700;28;20085;-61
2022/10/25 09:02:58;;;;;;;19.17;9.00;;;14.00;99.90;;;;;;4967415;28;20795;-62
2022/10/25 09:05:38;;;;;;;21.05;9.13;;;13.80;99.90;;;;;;4965340;28;20043;-62
2022/10/25 09:08:03;;;;;;;24.27;8.73;;;14.10;99.90;;;;;;4965348;28;20102;-62
2022/10/25 09:10:44;;;;;;;18.27;7.57;;;14.10;99.90;;;;;;4966541;28;20043;-62
2022/10/25 09:13:38;;;;;;;19.85;8.93;;;14.10;99.90;;;;;;4966238;28;20747;-62
2022/10/25 09:16:32;;;;;;;18.58;8.57;;;14.10;99.90;;;;;;4964842;28;20086;-62
2022/10/25 09:18:58;;;;;;;23.17;9.68;;;14.20;99.90;;;;;;4966015;28;20088;-62
2022/10/25 09:21:38;;;;;;;18.88;8.25;;;14.40;99.90;;;;;;4964794;28;20059;-61
2022/10/25 09:24:28;;;;;;;17.48;7.22;;;14.40;99.90;;;;;;4966227;28;20047;-62
2022/10/25 09:26:59;;;;;;;16.52;6.90;;;14.20;99.90;;;;;;4958511;28;20066;-62
2022/10/25 09:29:45;;;;;;;16.10;8.00;;;14.50;99.90;;;;;;4949413;28;20043;-62
2022/10/25 09:32:27;;;;;;;19.73;7.07;;;14.60;99.90;;;;;;4967100;28;20043;-62
2022/10/25 09:34:53;;;;;;;16.95;6.95;;;14.50;99.90;;;;;;4965979;28;20050;-62
2022/10/25 09:37:27;;;;;;;21.38;7.68;;;14.40;99.90;;;;;;4965928;28;20042;-62
2022/10/25 09:39:58;;;;;;;16.73;7.03;;;14.60;99.90;;;;;;4966330;28;20170;-62
2022/10/25 09:42:33;;;;;;;15.73;6.78;;;14.60;99.90;;;;;;4966424;28;20498;-62
2022/10/25 09:45:07;;;;;;;14.57;5.90;;;14.90;99.90;;;;;;4966059;28;20058;-63
2022/10/25 09:47:46;;;;;;;15.10;6.68;;;14.90;99.90;;;;;;4966286;28;20126;-62
2022/10/25 09:50:26;;;;;;;15.77;7.15;;;14.90;99.90;;;;;;4964790;28;20110;-62
2022/10/25 09:53:15;;;;;;;15.20;6.00;;;15.10;99.90;;;;;;4965949;28;20046;-62
2022/10/25 09:55:50;;;;;;;13.85;5.72;;;15.00;99.90;;;;;;4965726;28;20039;-62
2022/10/25 09:58:20;;;;;;;17.75;5.55;;;14.90;99.90;;;;;;4965415;28;20043;-62
2022/10/25 10:00:46;;;;;;;16.83;6.47;;;15.10;99.90;;;;;;4964816;28;20054;-62
2022/10/25 10:03:12;;;;;;;9.45;4.25;;;15.20;99.90;;;;;;4965568;28;20133;-62
2022/10/25 10:05:43;;;;;;;12.45;4.93;;;15.20;99.90;;;;;;4963584;28;20050;-62
2022/10/25 10:08:09;;;;;;;14.30;4.47;;;15.50;99.90;;;;;;4947193;28;20114;-62
2022/10/25 10:10:36;;;;;;;13.18;4.72;;;15.60;99.90;;;;;;4964884;28;20534;-62
2022/10/25 10:13:16;;;;;;;14.55;4.78;;;15.80;99.90;;;;;;4965027;28;20053;-63
2022/10/25 10:16:01;;;;;;;11.48;4.25;;;15.70;99.90;;;;;;4963867;28;20043;-62
2022/10/25 10:18:28;;;;;;;;;;;15.70;99.90;;;;;;4965826;28;20043;-62
2022/10/25 10:21:04;;;;;;;9.77;3.85;;;15.50;99.90;;;;;;4964622;28;19934;-62
2022/10/25 10:23:35;;;;;;;10.02;3.90;;;15.20;99.90;;;;;;4965737;28;20047;-62
2022/10/25 10:26:18;;;;;;;13.38;4.25;;;15.60;99.90;;;;;;4965077;28;20475;-63
2022/10/25 10:28:45;;;;;;;7.35;3.25;;;15.50;99.90;;;;;;4964358;28;20054;-62
2022/10/25 10:31:11;;;;;;;15.23;4.00;;;15.50;99.90;;;;;;4965105;28;20506;-62
2022/10/25 10:33:37;;;;;;;11.65;4.25;;;15.60;99.90;;;;;;4965045;28;20042;-61
2022/10/25 10:36:19;;;;;;;8.90;3.30;;;15.80;99.90;;;;;;4963067;28;20217;-63
2022/10/25 10:38:45;;;;;;;15.55;3.70;;;15.50;99.90;;;;;;4947397;28;20043;-62
2022/10/25 10:41:12;;;;;;;11.70;3.63;;;15.40;99.90;;;;;;4931253;28;20182;-62
2022/10/25 10:43:38;;;;;;;12.32;3.22;;;15.40;99.90;;;;;;4963651;28;20108;-62
2022/10/25 10:46:14;;;;;;;11.90;3.25;;;15.30;99.90;;;;;;4947518;28;20502;-62
2022/10/25 10:48:44;;;;;;;11.82;3.47;;;15.10;99.90;;;;;;4964148;28;20047;-62
2022/10/25 10:51:16;;;;;;;10.55;3.40;;;15.20;99.90;;;;;;4963321;28;20047;-62
2022/10/25 10:53:42;;;;;;;10.88;3.92;;;15.10;99.90;;;;;;4946509;28;20063;-62
2022/10/25 10:56:08;;;;;;;11.32;3.78;;;15.10;99.90;;;;;;4946810;28;20059;-63
2022/10/25 10:58:38;;;;;;;11.75;3.40;;;15.30;99.90;;;;;;4946807;28;20047;-63
2022/10/25 11:01:09;;;;;;;11.68;3.85;;;15.40;99.90;;;;;;4964660;28;20043;-64
2022/10/25 11:03:38;;;;;;;12.52;4.07;;;15.50;99.90;;;;;;4946685;28;20093;-61
2022/10/25 11:06:27;;;;;;;8.23;2.90;;;15.50;99.90;;;;;;4962235;28;20054;-63
2022/10/25 11:09:20;;;;;;;12.52;3.58;;;15.10;99.90;;;;;;4948042;28;20078;-62
2022/10/25 11:12:15;;;;;;;10.95;3.60;;;15.60;99.90;;;;;;4946283;28;20046;-62
2022/10/25 11:14:41;;;;;;;11.57;3.92;;;15.50;99.90;;;;;;4962727;28;20055;-60
2022/10/25 11:17:14;;;;;;;14.77;4.18;;;15.40;99.90;;;;;;4962962;28;20041;-62
2022/10/25 11:19:45;;;;;;;10.25;3.97;;;15.20;99.90;;;;;;4962765;28;20046;-62
2022/10/25 11:22:23;;;;;;;9.32;3.50;;;15.30;99.90;;;;;;4963034;28;20055;-62
2022/10/25 11:25:01;;;;;;;9.23;3.92;;;15.30;99.90;;;;;;4964281;28;20051;-61
2022/10/25 11:27:39;;;;;;;9.82;3.53;;;15.70;99.90;;;;;;4963973;28;20121;-61
2022/10/25 11:30:10;;;;;;;6.25;3.03;;;16.00;99.90;;;;;;4964582;28;20573;-62
2022/10/25 11:33:17;;;;;;;9.68;3.55;;;16.10;99.90;;;;;;4963899;28;20038;-62
2022/10/25 11:35:48;;;;;;;6.13;2.40;;;16.20;99.90;;;;;;4962830;28;20074;-62
2022/10/25 11:38:36;;;;;;;12.75;3.50;;;16.10;99.90;;;;;;4946962;28;20047;-61
2022/10/25 11:41:08;;;;;;;15.98;3.60;;;16.20;99.90;;;;;;4946805;28;20086;-61
2022/10/25 11:44:11;;;;;;;8.60;2.72;;;16.10;99.90;;;;;;4964780;28;20034;-62
2022/10/25 11:46:43;;;;;;;10.80;3.30;;;16.00;99.90;;;;;;4955274;28;20086;-61
2022/10/25 11:49:27;;;;;;;10.55;3.33;;;15.80;99.90;;;;;;4946101;28;20051;-61
2022/10/25 11:52:08;;;;;;;9.82;2.88;;;15.90;99.90;;;;;;4945936;28;20043;-62
2022/10/25 11:54:45;;;;;;;8.18;3.10;;;15.80;99.90;;;;;;4963870;28;20421;-62
2022/10/25 11:57:24;;;;;;;10.90;3.35;;;15.80;99.90;;;;;;4954853;28;20094;-62
2022/10/25 11:59:56;;;;;;;12.25;3.28;;;15.70;99.90;;;;;;4944150;29;20509;-61
2022/10/25 12:02:30;;;;;;;6.72;3.20;;;15.60;99.90;;;;;;4959533;28;20061;-62
2022/10/25 12:05:25;;;;;;;12.95;3.40;;;15.70;99.90;;;;;;4962260;28;20434;-62
2022/10/25 12:08:13;;;;;;;8.70;3.00;;;15.70;99.90;;;;;;4939199;28;20054;-62
2022/10/25 12:10:42;;;;;;;8.75;2.85;;;15.70;99.90;;;;;;4963042;28;20122;-62
2022/10/25 12:13:19;;;;;;;9.23;2.67;;;15.60;99.90;;;;;;4962194;28;20082;-63
2022/10/25 12:15:48;;;;;;;10.43;2.70;;;15.60;99.90;;;;;;4946143;28;20054;-61
2022/10/25 12:18:21;;;;;;;11.40;3.03;;;15.60;99.90;;;;;;4963785;28;20039;-62
2022/10/25 12:20:48;;;;;;;10.35;3.03;;;15.50;99.90;;;;;;4961620;28;20073;-61
2022/10/25 12:23:17;;;;;;;8.35;2.65;;;15.60;99.90;;;;;;4962406;28;20054;-62
2022/10/25 12:25:47;;;;;;;9.57;2.72;;;15.60;99.90;;;;;;4962554;28;20043;-62
2022/10/25 12:28:24;;;;;;;12.80;3.50;;;15.60;99.90;;;;;;4964113;28;20105;-62
2022/10/25 12:30:56;;;;;;;9.95;2.80;;;15.70;99.90;;;;;;4949120;28;20125;-61
2022/10/25 12:33:47;;;;;;;9.43;2.53;;;15.70;99.90;;;;;;4966838;28;20050;-62
2022/10/25 12:36:31;;;;;;;10.50;3.25;;;15.80;99.90;;;;;;4946983;29;20410;-61
2022/10/25 12:39:03;;;;;;;7.65;2.35;;;15.90;99.90;;;;;;4956989;28;20116;-61
2022/10/25 12:41:36;;;;;;;6.63;2.28;;;16.00;99.90;;;;;;4967110;28;20293;-61
2022/10/25 12:44:13;;;;;;;6.22;1.90;;;16.00;99.90;;;;;;4966933;28;20065;-61
2022/10/25 12:46:49;;;;;;;8.77;2.47;;;16.20;99.90;;;;;;4949221;28;20050;-62
2022/10/25 12:49:35;;;;;;;7.25;2.30;;;16.30;99.90;;;;;;4965876;28;20046;-62
2022/10/25 12:52:34;;;;;;;7.85;2.45;;;16.10;99.90;;;;;;4966464;28;20054;-62